createdAt,value
2023-04-10T00:00:09.588Z,91.60
2023-04-10T00:00:42.126Z,92.40
2023-04-10T00:01:14.619Z,92.80
2023-04-10T00:01:47.193Z,92.40
2023-04-10T00:02:19.701Z,87.80
2023-04-10T00:02:52.270Z,90.10
2023-04-10T00:03:24.769Z,100.20
2023-04-10T00:03:57.384Z,97.40
2023-04-10T00:04:29.672Z,91.10
2023-04-10T00:05:02.152Z,91.10
2023-04-10T00:05:34.576Z,93.10
2023-04-10T00:06:07.063Z,98.10
2023-04-10T00:06:39.587Z,95.80
2023-04-10T00:07:12.054Z,81.40
2023-04-10T00:07:44.512Z,87.50
2023-04-10T00:08:17.045Z,97.10
2023-04-10T00:08:49.601Z,100.60
2023-04-10T00:09:22.177Z,99.00
2023-04-10T00:09:54.637Z,106.50
2023-04-10T00:10:27.122Z,98.90
2023-04-10T00:10:59.573Z,96.10
2023-04-10T00:11:32.166Z,93.30
2023-04-10T00:12:04.634Z,95.60
2023-04-10T00:12:37.136Z,96.00
2023-04-10T00:13:09.600Z,101.90
2023-04-10T00:13:42.040Z,92.90
2023-04-10T00:14:14.523Z,92.00
2023-04-10T00:14:47.027Z,97.50
2023-04-10T00:15:19.471Z,92.90
2023-04-10T00:15:51.968Z,94.60
2023-04-10T00:16:24.481Z,96.20
2023-04-10T00:16:56.929Z,91.00
2023-04-10T00:17:29.424Z,89.00
2023-04-10T00:18:02.015Z,101.70
2023-04-10T00:18:34.435Z,103.60
2023-04-10T00:19:06.940Z,96.80
2023-04-10T00:19:39.423Z,93.70
2023-04-10T00:20:11.914Z,99.60
2023-04-10T00:20:44.413Z,98.60
2023-04-10T00:21:16.893Z,89.30
2023-04-10T00:21:49.358Z,91.90
2023-04-10T00:22:21.847Z,95.90
2023-04-10T00:22:54.344Z,92.40
2023-04-10T00:23:26.858Z,85.30
2023-04-10T00:23:59.309Z,87.80
2023-04-10T00:24:31.829Z,95.40
2023-04-10T00:25:04.287Z,92.10
2023-04-10T00:25:36.766Z,91.40
2023-04-10T00:26:09.253Z,87.30
2023-04-10T00:26:41.734Z,86.00
2023-04-10T00:27:14.194Z,93.10
2023-04-10T00:27:46.688Z,100.70
2023-04-10T00:28:19.155Z,107.00
2023-04-10T00:28:51.730Z,103.70
2023-04-10T00:29:24.165Z,98.90
2023-04-10T00:29:56.654Z,104.10
2023-04-10T00:30:29.149Z,101.40
2023-04-10T00:31:01.673Z,97.90
2023-04-10T00:31:34.190Z,94.40
2023-04-10T00:32:06.631Z,89.30
2023-04-10T00:32:39.097Z,85.70
2023-04-10T00:33:11.521Z,91.40
2023-04-10T00:33:43.974Z,104.80
2023-04-10T00:34:16.457Z,101.60
2023-04-10T00:34:48.987Z,87.70
2023-04-10T00:35:21.451Z,87.90
2023-04-10T00:35:53.967Z,100.50
2023-04-10T00:36:26.406Z,101.50
2023-04-10T00:36:58.879Z,96.50
2023-04-10T00:37:31.361Z,105.90
2023-04-10T00:38:03.843Z,104.30
2023-04-10T00:38:36.305Z,107.20
2023-04-10T00:39:08.848Z,99.40
2023-04-10T00:39:41.297Z,98.90
2023-04-10T00:40:13.780Z,104.20
2023-04-10T00:40:46.205Z,107.20
2023-04-10T00:41:18.675Z,100.70
2023-04-10T00:41:51.301Z,99.50
2023-04-10T00:42:23.808Z,102.40
2023-04-10T00:42:56.280Z,104.80
2023-04-10T00:43:28.776Z,102.40
2023-04-10T00:44:01.271Z,101.40
2023-04-10T00:44:33.740Z,97.20
2023-04-10T00:45:06.213Z,97.90
2023-04-10T00:45:38.708Z,100.60
2023-04-10T00:46:11.193Z,102.30
2023-04-10T00:46:43.666Z,99.10
2023-04-10T00:47:16.134Z,98.30
2023-04-10T00:47:48.713Z,104.20
2023-04-10T00:48:21.082Z,112.40
2023-04-10T00:48:53.562Z,109.20
2023-04-10T00:49:26.031Z,105.20
2023-04-10T00:49:58.547Z,118.80
2023-04-10T00:50:31.045Z,109.00
2023-04-10T00:51:03.510Z,97.70
2023-04-10T00:51:35.981Z,101.10
2023-04-10T00:52:08.499Z,97.10
2023-04-10T00:52:40.973Z,95.50
2023-04-10T00:53:13.449Z,103.20
2023-04-10T00:53:45.931Z,104.80
2023-04-10T00:54:18.408Z,107.90
2023-04-10T00:54:50.868Z,109.40
2023-04-10T00:55:23.365Z,101.60
2023-04-10T00:55:55.881Z,101.60
2023-04-10T00:56:28.353Z,101.20
2023-04-10T00:57:00.897Z,97.60
2023-04-10T00:57:33.355Z,95.10
2023-04-10T00:58:05.818Z,108.60
2023-04-10T00:58:38.381Z,113.70
2023-04-10T00:59:10.870Z,115.80
2023-04-10T00:59:43.382Z,111.60
2023-04-10T01:00:15.903Z,101.90
2023-04-10T01:00:48.378Z,99.90
2023-04-10T01:01:20.923Z,110.30
2023-04-10T01:01:53.472Z,111.90
2023-04-10T01:02:25.997Z,113.50
2023-04-10T01:02:58.419Z,118.90
2023-04-10T01:03:30.862Z,108.20
2023-04-10T01:04:03.402Z,100.80
2023-04-10T01:04:35.873Z,101.20
2023-04-10T01:05:08.198Z,110.50
2023-04-10T01:05:40.697Z,108.90
2023-04-10T01:06:13.146Z,107.20
2023-04-10T01:06:45.656Z,112.00
2023-04-10T01:07:18.105Z,107.90
2023-04-10T01:07:50.584Z,104.70
2023-04-10T01:08:23.048Z,114.80
2023-04-10T01:08:55.535Z,113.70
2023-04-10T01:09:28.026Z,116.80
2023-04-10T01:10:00.494Z,118.70
2023-04-10T01:10:32.971Z,112.90
2023-04-10T01:11:05.444Z,110.00
2023-04-10T01:11:37.891Z,109.50
2023-04-10T01:12:10.399Z,115.10
2023-04-10T01:12:42.909Z,121.40
2023-04-10T01:13:15.416Z,123.00
2023-04-10T01:13:47.895Z,115.80
2023-04-10T01:14:20.368Z,111.20
2023-04-10T01:14:53.384Z,115.50
2023-04-10T01:15:25.886Z,119.10
2023-04-10T01:15:58.393Z,131.80
2023-04-10T01:16:30.905Z,136.20
2023-04-10T01:17:03.508Z,130.10
2023-04-10T01:17:35.858Z,130.80
2023-04-10T01:18:08.373Z,120.30
2023-04-10T01:18:40.818Z,117.80
2023-04-10T01:19:13.342Z,127.70
2023-04-10T01:19:45.880Z,122.10
2023-04-10T01:20:18.382Z,122.70
2023-04-10T01:20:50.881Z,127.80
2023-04-10T01:21:23.368Z,121.00
2023-04-10T01:21:55.896Z,117.40
2023-04-10T01:22:28.369Z,121.70
2023-04-10T01:23:00.839Z,122.80
2023-04-10T01:23:33.301Z,121.40
2023-04-10T01:24:05.797Z,116.20
2023-04-10T01:24:38.286Z,119.40
2023-04-10T01:25:10.759Z,125.40
2023-04-10T01:25:43.237Z,121.30
2023-04-10T01:26:15.805Z,126.80
2023-04-10T01:26:48.275Z,128.40
2023-04-10T01:27:20.756Z,124.60
2023-04-10T01:27:53.220Z,123.60
2023-04-10T01:28:25.746Z,128.20
2023-04-10T01:28:58.220Z,121.80
2023-04-10T01:29:30.695Z,118.30
2023-04-10T01:30:03.195Z,122.80
2023-04-10T01:30:35.733Z,116.40
2023-04-10T01:31:08.238Z,114.80
2023-04-10T01:31:40.687Z,124.10
2023-04-10T01:32:13.133Z,135.60
2023-04-10T01:32:45.632Z,119.50
2023-04-10T01:33:18.099Z,108.50
2023-04-10T01:33:50.581Z,114.30
2023-04-10T01:34:23.058Z,131.90
2023-04-10T01:34:55.556Z,122.50
2023-04-10T01:35:28.043Z,109.80
2023-04-10T01:36:00.511Z,117.30
2023-04-10T01:36:32.983Z,120.30
2023-04-10T01:37:05.483Z,126.60
2023-04-10T01:37:37.929Z,141.70
2023-04-10T01:38:10.430Z,130.40
2023-04-10T01:38:42.906Z,115.80
2023-04-10T01:39:15.463Z,118.30
2023-04-10T01:39:47.962Z,113.10
2023-04-10T01:40:20.401Z,108.60
2023-04-10T01:40:52.869Z,113.70
2023-04-10T01:41:25.406Z,124.60
2023-04-10T01:41:57.924Z,120.90
2023-04-10T01:42:30.352Z,111.90
2023-04-10T01:43:02.834Z,116.00
2023-04-10T01:43:35.301Z,125.40
2023-04-10T01:44:07.815Z,128.30
2023-04-10T01:44:40.300Z,115.50
2023-04-10T01:45:12.781Z,105.60
2023-04-10T01:45:45.261Z,107.70
2023-04-10T01:46:17.803Z,113.50
2023-04-10T01:46:50.218Z,131.50
2023-04-10T01:47:22.744Z,133.30
2023-04-10T01:47:55.206Z,127.60
2023-04-10T01:48:27.660Z,122.60
2023-04-10T01:49:00.201Z,109.20
2023-04-10T01:49:32.690Z,113.70
2023-04-10T01:50:05.140Z,109.20
2023-04-10T01:50:37.628Z,113.10
2023-04-10T01:51:10.132Z,110.30
2023-04-10T01:51:42.619Z,114.60
2023-04-10T01:52:15.091Z,117.30
2023-04-10T01:52:47.554Z,117.10
2023-04-10T01:53:20.050Z,129.40
2023-04-10T01:53:52.862Z,124.40
2023-04-10T01:54:25.021Z,122.30
2023-04-10T01:54:57.503Z,121.30
2023-04-10T01:55:29.982Z,122.90
2023-04-10T01:56:02.445Z,127.60
2023-04-10T01:56:34.942Z,127.60
2023-04-10T01:57:07.414Z,118.90
2023-04-10T01:57:39.868Z,118.30
2023-04-10T01:58:12.330Z,128.40
2023-04-10T01:58:44.817Z,124.70
2023-04-10T01:59:17.258Z,125.50
2023-04-10T01:59:49.766Z,119.00
2023-04-10T02:00:22.262Z,116.00
2023-04-10T02:00:54.730Z,121.10
2023-04-10T02:01:30.097Z,123.30
2023-04-10T02:01:59.763Z,126.90
2023-04-10T02:02:32.314Z,124.60
2023-04-10T02:03:04.823Z,126.90
2023-04-10T02:03:37.433Z,131.80
2023-04-10T02:04:09.709Z,133.30
2023-04-10T02:04:42.183Z,131.50
2023-04-10T02:05:14.676Z,123.00
2023-04-10T02:05:47.142Z,124.90
2023-04-10T02:06:19.611Z,123.70
2023-04-10T02:06:52.110Z,120.60
2023-04-10T02:07:24.576Z,112.90
2023-04-10T02:07:57.048Z,119.40
2023-04-10T02:08:29.501Z,126.70
2023-04-10T02:09:01.956Z,120.40
2023-04-10T02:09:34.449Z,121.30
2023-04-10T02:10:06.921Z,118.80
2023-04-10T02:10:39.410Z,118.30
2023-04-10T02:11:11.888Z,119.40
2023-04-10T02:11:44.351Z,122.00
2023-04-10T02:12:16.837Z,120.40
2023-04-10T02:12:49.317Z,115.50
2023-04-10T02:13:21.824Z,119.10
2023-04-10T02:13:54.542Z,119.50
2023-04-10T02:14:26.766Z,115.70
2023-04-10T02:14:59.395Z,123.10
2023-04-10T02:15:31.788Z,125.50
2023-04-10T02:16:04.448Z,127.30
2023-04-10T02:16:36.723Z,123.90
2023-04-10T02:17:09.241Z,119.60
2023-04-10T02:17:41.762Z,117.90
2023-04-10T02:18:14.215Z,119.20
2023-04-10T02:18:46.673Z,122.10
2023-04-10T02:19:19.147Z,129.10
2023-04-10T02:19:51.612Z,129.70
2023-04-10T02:20:24.159Z,125.00
2023-04-10T02:20:56.648Z,119.70
2023-04-10T02:21:29.134Z,122.80
2023-04-10T02:22:01.639Z,121.80
2023-04-10T02:22:34.105Z,124.40
2023-04-10T02:23:06.564Z,119.40
2023-04-10T02:23:39.046Z,116.40
2023-04-10T02:24:11.521Z,118.10
2023-04-10T02:24:43.966Z,125.10
2023-04-10T02:25:16.469Z,118.20
2023-04-10T02:25:48.943Z,115.80
2023-04-10T02:26:21.419Z,114.30
2023-04-10T02:26:53.928Z,117.80
2023-04-10T02:27:26.357Z,117.60
2023-04-10T02:27:58.819Z,108.50
2023-04-10T02:28:31.271Z,112.40
2023-04-10T02:29:03.740Z,119.40
2023-04-10T02:29:36.222Z,109.70
2023-04-10T02:30:08.669Z,113.70
2023-04-10T02:30:41.360Z,118.20
2023-04-10T02:31:13.874Z,112.80
2023-04-10T02:31:46.337Z,115.30
2023-04-10T02:32:18.778Z,118.10
2023-04-10T02:32:51.334Z,114.50
2023-04-10T02:33:23.747Z,111.60
2023-04-10T02:33:56.350Z,113.80
2023-04-10T02:34:28.716Z,112.20
2023-04-10T02:35:01.187Z,121.20
2023-04-10T02:35:33.678Z,122.70
2023-04-10T02:36:06.230Z,118.10
2023-04-10T02:36:38.624Z,113.60
2023-04-10T02:37:11.097Z,111.60
2023-04-10T02:37:43.554Z,114.70
2023-04-10T02:38:17.302Z,112.40
2023-04-10T02:38:48.517Z,116.40
2023-04-10T02:39:21.001Z,117.10
2023-04-10T02:39:53.492Z,110.10
2023-04-10T02:40:26.000Z,121.50
2023-04-10T02:40:58.477Z,127.90
2023-04-10T02:41:30.970Z,112.30
2023-04-10T02:42:03.437Z,107.10
2023-04-10T02:42:35.935Z,110.00
2023-04-10T02:43:08.411Z,109.50
2023-04-10T02:43:40.907Z,108.80
2023-04-10T02:44:13.385Z,113.80
2023-04-10T02:44:45.893Z,120.60
2023-04-10T02:45:18.393Z,112.10
2023-04-10T02:45:50.855Z,108.70
2023-04-10T02:46:23.440Z,118.90
2023-04-10T02:46:55.893Z,117.30
2023-04-10T02:47:28.387Z,114.00
2023-04-10T02:48:00.916Z,112.40
2023-04-10T02:48:33.315Z,111.50
2023-04-10T02:49:05.786Z,113.10
2023-04-10T02:49:38.260Z,120.20
2023-04-10T02:50:10.723Z,116.60
2023-04-10T02:50:43.170Z,127.60
2023-04-10T02:51:15.648Z,126.70
2023-04-10T02:51:48.152Z,117.50
2023-04-10T02:52:20.615Z,108.40
2023-04-10T02:52:53.103Z,105.20
2023-04-10T02:53:25.614Z,103.80
2023-04-10T02:53:58.067Z,107.50
2023-04-10T02:54:30.569Z,114.00
2023-04-10T02:55:03.047Z,114.80
2023-04-10T02:55:35.520Z,118.90
2023-04-10T02:56:07.978Z,100.20
2023-04-10T02:56:40.463Z,105.50
2023-04-10T02:57:12.983Z,115.10
2023-04-10T02:57:45.451Z,113.90
2023-04-10T02:58:17.942Z,127.40
2023-04-10T02:58:50.430Z,123.10
2023-04-10T02:59:22.965Z,105.00
2023-04-10T02:59:55.421Z,107.40
2023-04-10T03:00:27.891Z,108.20
2023-04-10T03:01:00.380Z,113.60
2023-04-10T03:01:32.894Z,114.40
2023-04-10T03:02:05.424Z,117.80
2023-04-10T03:02:37.989Z,125.60
2023-04-10T03:03:10.418Z,116.90
2023-04-10T03:03:42.851Z,110.50
2023-04-10T03:04:15.295Z,109.50
2023-04-10T03:04:47.767Z,105.90
2023-04-10T03:05:20.179Z,104.30
2023-04-10T03:05:52.661Z,106.60
2023-04-10T03:06:25.158Z,107.90
2023-04-10T03:06:57.653Z,113.70
2023-04-10T03:07:30.110Z,119.70
2023-04-10T03:08:02.594Z,107.30
2023-04-10T03:08:35.064Z,103.70
2023-04-10T03:09:07.531Z,108.60
2023-04-10T03:09:40.043Z,98.60
2023-04-10T03:10:12.505Z,104.30
2023-04-10T03:10:44.996Z,109.90
2023-04-10T03:11:17.448Z,109.70
2023-04-10T03:11:49.928Z,109.20
2023-04-10T03:12:22.444Z,105.20
2023-04-10T03:12:54.914Z,105.30
2023-04-10T03:13:27.428Z,113.80
2023-04-10T03:13:59.892Z,109.90
2023-04-10T03:14:32.360Z,120.80
2023-04-10T03:15:04.839Z,125.20
2023-04-10T03:15:37.316Z,123.80
2023-04-10T03:16:09.842Z,116.80
2023-04-10T03:16:42.332Z,104.00
2023-04-10T03:17:14.776Z,106.20
2023-04-10T03:17:47.287Z,113.10
2023-04-10T03:18:19.748Z,105.60
2023-04-10T03:18:52.272Z,101.00
2023-04-10T03:19:24.722Z,99.70
2023-04-10T03:19:57.194Z,102.60
2023-04-10T03:20:29.678Z,104.20
2023-04-10T03:21:02.209Z,97.20
2023-04-10T03:21:34.707Z,107.90
2023-04-10T03:22:07.201Z,121.50
2023-04-10T03:22:39.750Z,109.80
2023-04-10T03:23:12.165Z,102.90
2023-04-10T03:23:44.641Z,110.10
2023-04-10T03:24:17.137Z,109.00
2023-04-10T03:24:49.605Z,111.80
2023-04-10T03:25:22.096Z,104.20
2023-04-10T03:25:54.604Z,105.50
2023-04-10T03:26:27.096Z,111.90
2023-04-10T03:26:59.562Z,106.60
2023-04-10T03:27:32.052Z,109.20
2023-04-10T03:28:04.506Z,109.80
2023-04-10T03:28:36.977Z,104.50
2023-04-10T03:29:09.473Z,106.60
2023-04-10T03:29:41.971Z,101.80
2023-04-10T03:30:14.431Z,103.60
2023-04-10T03:30:46.909Z,101.00
2023-04-10T03:31:19.426Z,102.00
2023-04-10T03:31:51.907Z,95.60
2023-04-10T03:32:24.334Z,95.40
2023-04-10T03:32:56.874Z,102.90
2023-04-10T03:33:29.393Z,104.40
2023-04-10T03:34:01.949Z,102.90
2023-04-10T03:34:34.402Z,106.70
2023-04-10T03:35:06.870Z,99.00
2023-04-10T03:35:39.432Z,99.10
2023-04-10T03:36:11.897Z,111.30
2023-04-10T03:36:44.340Z,105.70
2023-04-10T03:37:16.835Z,99.70
2023-04-10T03:37:49.391Z,99.60
2023-04-10T03:38:21.856Z,102.00
2023-04-10T03:38:54.358Z,98.70
2023-04-10T03:39:26.847Z,102.60
2023-04-10T03:39:59.305Z,112.00
2023-04-10T03:40:31.829Z,106.70
2023-04-10T03:41:04.311Z,95.90
2023-04-10T03:41:36.807Z,101.10
2023-04-10T03:42:09.330Z,112.60
2023-04-10T03:42:41.809Z,102.00
2023-04-10T03:43:14.306Z,96.30
2023-04-10T03:43:46.815Z,100.50
2023-04-10T03:44:19.313Z,101.90
2023-04-10T03:44:51.791Z,101.30
2023-04-10T03:45:24.305Z,99.10
2023-04-10T03:45:56.770Z,97.70
2023-04-10T03:46:29.296Z,111.00
2023-04-10T03:47:01.774Z,105.50
2023-04-10T03:47:34.298Z,89.00
2023-04-10T03:48:06.769Z,92.60
2023-04-10T03:48:39.235Z,97.70
2023-04-10T03:49:11.700Z,97.50
2023-04-10T03:49:44.206Z,99.50
2023-04-10T03:50:16.721Z,103.10
2023-04-10T03:50:49.181Z,103.10
2023-04-10T03:51:21.680Z,103.50
2023-04-10T03:51:54.140Z,102.20
2023-04-10T03:52:26.639Z,88.20
2023-04-10T03:52:59.134Z,86.40
2023-04-10T03:53:32.919Z,90.60
2023-04-10T03:54:04.094Z,85.60
2023-04-10T03:54:36.562Z,83.00
2023-04-10T03:55:09.061Z,87.20
2023-04-10T03:55:41.526Z,98.10
2023-04-10T03:56:13.998Z,101.60
2023-04-10T03:56:46.529Z,99.00
2023-04-10T03:57:19.007Z,101.80
2023-04-10T03:57:51.469Z,101.10
2023-04-10T03:58:23.966Z,93.50
2023-04-10T03:58:56.444Z,92.90
2023-04-10T03:59:38.208Z,92.20
2023-04-10T04:00:01.472Z,94.90
2023-04-10T04:00:33.960Z,87.30
2023-04-10T04:01:06.422Z,94.90
2023-04-10T04:01:39.044Z,100.40
2023-04-10T04:02:11.544Z,100.20
2023-04-10T04:02:44.047Z,97.80
2023-04-10T04:03:16.590Z,91.20
2023-04-10T04:03:49.053Z,89.20
2023-04-10T04:04:21.431Z,84.00
2023-04-10T04:04:53.909Z,84.40
2023-04-10T04:05:26.372Z,89.40
2023-04-10T04:05:58.863Z,96.70
2023-04-10T04:06:31.349Z,100.10
2023-04-10T04:07:03.854Z,86.90
2023-04-10T04:07:36.306Z,81.90
2023-04-10T04:08:08.810Z,82.20
2023-04-10T04:08:41.306Z,92.00
2023-04-10T04:09:13.878Z,92.50
2023-04-10T04:09:46.384Z,98.30
2023-04-10T04:10:18.855Z,94.30
2023-04-10T04:10:51.341Z,83.60
2023-04-10T04:11:23.851Z,91.70
2023-04-10T04:11:56.313Z,97.00
2023-04-10T04:12:28.812Z,86.30
2023-04-10T04:13:01.278Z,92.00
2023-04-10T04:13:33.754Z,90.10
2023-04-10T04:15:51.287Z,91.90
2023-04-10T04:16:23.757Z,86.10
2023-04-10T04:16:56.247Z,91.10
2023-04-10T04:17:28.685Z,95.50
2023-04-10T04:18:01.115Z,87.20
2023-04-10T04:18:33.546Z,89.70
2023-04-10T04:19:05.992Z,91.40
2023-04-10T04:19:38.451Z,87.10
2023-04-10T04:20:10.894Z,86.40
2023-04-10T04:20:43.385Z,89.70
2023-04-10T04:21:15.832Z,90.20
2023-04-10T04:21:48.290Z,87.30
2023-04-10T04:22:20.746Z,85.90
2023-04-10T04:22:53.182Z,85.90
2023-04-10T04:23:25.662Z,84.10
2023-04-10T04:23:58.143Z,85.60
2023-04-10T04:24:30.606Z,87.40
2023-04-10T04:25:03.161Z,84.60
2023-04-10T04:25:35.618Z,82.60
2023-04-10T04:26:08.111Z,79.20
2023-04-10T04:26:40.605Z,91.50
2023-04-10T04:27:13.066Z,85.00
2023-04-10T04:27:45.523Z,80.00
2023-04-10T04:28:17.995Z,92.90
2023-04-10T04:28:50.468Z,91.00
2023-04-10T04:29:22.938Z,90.40
2023-04-10T04:29:55.392Z,93.00
2023-04-10T04:30:27.882Z,93.90
2023-04-10T04:31:00.374Z,82.60
2023-04-10T04:31:32.977Z,72.20
2023-04-10T04:32:05.348Z,72.90
2023-04-10T04:32:37.876Z,83.80
2023-04-10T04:33:10.289Z,85.10
2023-04-10T04:33:42.750Z,92.10
2023-04-10T04:34:15.219Z,86.00
2023-04-10T04:34:47.663Z,79.20
2023-04-10T04:35:20.144Z,80.20
2023-04-10T04:35:52.614Z,81.10
2023-04-10T04:36:25.031Z,82.10
2023-04-10T04:36:57.523Z,78.90
2023-04-10T04:37:29.964Z,78.60
2023-04-10T04:38:02.456Z,77.20
2023-04-10T04:38:34.909Z,70.90
2023-04-10T04:39:07.357Z,77.70
2023-04-10T04:39:39.825Z,77.90
2023-04-10T04:40:12.295Z,73.80
2023-04-10T04:40:44.722Z,82.40
2023-04-10T04:41:18.765Z,88.50
2023-04-10T04:41:49.708Z,77.40
2023-04-10T04:42:22.133Z,75.70
2023-04-10T04:42:54.618Z,70.80
2023-04-10T04:43:27.093Z,73.40
2023-04-10T04:43:59.560Z,78.90
2023-04-10T04:44:32.066Z,78.10
2023-04-10T04:45:04.522Z,76.80
2023-04-10T04:45:37.018Z,77.10
2023-04-10T04:46:09.501Z,73.50
2023-04-10T04:46:44.404Z,76.10
2023-04-10T04:47:14.386Z,81.80
2023-04-10T04:47:46.899Z,80.30
2023-04-10T04:48:19.303Z,74.90
2023-04-10T04:48:51.753Z,68.80
2023-04-10T04:49:24.231Z,72.20
2023-04-10T04:49:56.674Z,80.90
2023-04-10T04:50:29.133Z,78.70
2023-04-10T04:51:01.592Z,73.90
2023-04-10T04:51:34.064Z,73.10
2023-04-10T04:52:06.526Z,73.20
2023-04-10T04:52:38.993Z,78.90
2023-04-10T04:53:11.473Z,84.20
2023-04-10T04:53:43.907Z,88.90
2023-04-10T04:54:16.390Z,82.00
2023-04-10T04:54:48.831Z,72.10
2023-04-10T04:55:21.296Z,69.20
2023-04-10T04:55:53.713Z,76.40
2023-04-10T04:56:26.153Z,68.70
2023-04-10T04:56:58.616Z,65.10
2023-04-10T04:57:31.062Z,74.40
2023-04-10T04:58:03.525Z,76.50
2023-04-10T04:58:35.991Z,76.90
2023-04-10T04:59:08.508Z,70.30
2023-04-10T04:59:40.987Z,64.80
2023-04-10T05:00:13.444Z,62.90
2023-04-10T05:00:45.923Z,70.50
2023-04-10T05:01:18.468Z,72.60
2023-04-10T05:01:51.054Z,65.00
2023-04-10T05:02:23.478Z,69.10
2023-04-10T05:02:56.055Z,72.30
2023-04-10T05:03:28.596Z,75.20
2023-04-10T05:04:00.935Z,76.50
2023-04-10T05:04:33.337Z,74.90
2023-04-10T05:05:05.845Z,72.00
2023-04-10T05:05:38.301Z,68.70
2023-04-10T05:06:10.789Z,75.50
2023-04-10T05:06:43.263Z,74.60
2023-04-10T05:07:15.734Z,77.30
2023-04-10T05:07:48.203Z,78.10
2023-04-10T05:08:20.689Z,68.20
2023-04-10T05:08:53.621Z,62.20
2023-04-10T05:09:25.667Z,69.10
2023-04-10T05:09:58.134Z,70.80
2023-04-10T05:10:30.656Z,66.40
2023-04-10T05:11:03.112Z,71.30
2023-04-10T05:11:35.631Z,76.00
2023-04-10T05:12:08.070Z,75.20
2023-04-10T05:12:40.546Z,66.30
2023-04-10T05:13:13.068Z,63.50
2023-04-10T05:13:45.531Z,70.60
2023-04-10T05:14:17.997Z,76.50
2023-04-10T05:14:50.485Z,76.70
2023-04-10T05:15:22.937Z,73.60
2023-04-10T05:15:55.447Z,74.80
2023-04-10T05:16:27.930Z,68.30
2023-04-10T05:17:02.158Z,60.30
2023-04-10T05:17:32.848Z,64.30
2023-04-10T05:18:05.339Z,67.20
2023-04-10T05:18:37.817Z,63.40
2023-04-10T05:19:10.175Z,71.10
2023-04-10T05:19:42.637Z,71.10
2023-04-10T05:20:15.094Z,59.60
2023-04-10T05:20:47.538Z,64.40
2023-04-10T05:21:20.021Z,75.00
2023-04-10T05:21:52.464Z,68.00
2023-04-10T05:22:25.001Z,62.70
2023-04-10T05:22:57.560Z,63.60
2023-04-10T05:23:30.030Z,58.80
2023-04-10T05:24:02.555Z,62.10
2023-04-10T05:24:34.986Z,58.70
2023-04-10T05:25:07.501Z,56.70
2023-04-10T05:25:40.010Z,56.90
2023-04-10T05:26:12.406Z,54.30
2023-04-10T05:26:44.885Z,61.40
2023-04-10T05:27:17.385Z,58.10
2023-04-10T05:27:49.855Z,61.80
2023-04-10T05:28:22.337Z,58.20
2023-04-10T05:28:55.054Z,49.80
2023-04-10T05:29:27.269Z,52.00
2023-04-10T05:29:59.733Z,54.50
2023-04-10T05:30:32.197Z,50.00
2023-04-10T05:31:04.695Z,55.20
2023-04-10T05:31:37.184Z,60.40
2023-04-10T05:32:09.596Z,61.00
2023-04-10T05:32:42.072Z,58.70
2023-04-10T05:33:14.514Z,57.90
2023-04-10T05:33:47.025Z,57.60
2023-04-10T05:34:19.492Z,61.90
2023-04-10T05:34:51.971Z,65.80
2023-04-10T05:35:24.446Z,59.60
2023-04-10T05:35:56.928Z,57.40
2023-04-10T05:36:29.366Z,56.40
2023-04-10T05:37:01.846Z,56.10
2023-04-10T05:37:34.334Z,56.80
2023-04-10T05:38:06.823Z,55.20
2023-04-10T05:38:39.279Z,58.10
2023-04-10T05:39:11.738Z,58.20
2023-04-10T05:39:44.226Z,55.80
2023-04-10T05:40:16.685Z,54.20
2023-04-10T05:40:49.181Z,54.60
2023-04-10T05:41:21.619Z,52.90
2023-04-10T05:41:54.114Z,48.30
2023-04-10T05:42:26.568Z,46.20
2023-04-10T05:42:59.036Z,47.20
2023-04-10T05:43:31.500Z,46.20
2023-04-10T05:44:03.987Z,47.00
2023-04-10T05:44:36.463Z,51.60
2023-04-10T05:45:08.941Z,50.40
2023-04-10T05:45:41.395Z,50.20
2023-04-10T05:46:13.928Z,50.00
2023-04-10T05:46:46.455Z,51.70
2023-04-10T05:47:18.838Z,48.50
2023-04-10T05:47:51.333Z,48.50
2023-04-10T05:48:23.769Z,48.90
2023-04-10T05:48:56.545Z,41.10
2023-04-10T05:49:28.715Z,44.00
2023-04-10T05:50:01.191Z,42.50
2023-04-10T05:50:33.688Z,43.90
2023-04-10T05:51:06.188Z,41.70
2023-04-10T05:51:38.629Z,42.20
2023-04-10T05:52:11.094Z,44.70
2023-04-10T05:52:43.568Z,46.40
2023-04-10T05:53:16.027Z,43.30
2023-04-10T05:53:48.610Z,41.60
2023-04-10T05:54:21.147Z,43.90
2023-04-10T05:54:53.631Z,48.00
2023-04-10T05:55:26.096Z,51.80
2023-04-10T05:55:58.588Z,48.70
2023-04-10T05:56:31.054Z,44.70
2023-04-10T05:57:03.524Z,42.90
2023-04-10T05:57:36.029Z,41.60
2023-04-10T05:58:08.511Z,41.90
2023-04-10T05:58:40.998Z,42.10
2023-04-10T05:59:13.482Z,40.20
2023-04-10T05:59:45.942Z,40.90
2023-04-10T06:00:18.404Z,44.00
2023-04-10T06:00:50.883Z,40.00
2023-04-10T06:01:23.359Z,38.20
2023-04-10T06:01:55.854Z,37.20
2023-04-10T06:02:28.511Z,45.40
2023-04-10T06:03:00.894Z,46.00
2023-04-10T06:03:33.302Z,41.70
2023-04-10T06:04:05.802Z,40.40
2023-04-10T06:04:38.417Z,44.20
2023-04-10T06:05:10.723Z,44.50
2023-04-10T06:05:43.126Z,43.20
2023-04-10T06:06:15.622Z,49.60
2023-04-10T06:06:48.052Z,51.40
2023-04-10T06:07:20.550Z,49.20
2023-04-10T06:07:53.019Z,44.30
2023-04-10T06:08:25.510Z,43.50
2023-04-10T06:08:57.999Z,43.40
2023-04-10T06:09:30.479Z,36.30
2023-04-10T06:10:02.951Z,38.20
2023-04-10T06:10:35.415Z,40.20
2023-04-10T06:11:07.921Z,41.60
2023-04-10T06:11:40.372Z,41.40
2023-04-10T06:12:12.847Z,39.30
2023-04-10T06:12:45.326Z,41.50
2023-04-10T06:13:17.787Z,40.60
2023-04-10T06:13:50.263Z,39.90
2023-04-10T06:14:22.724Z,39.10
2023-04-10T06:14:55.204Z,38.10
2023-04-10T06:15:27.666Z,39.60
2023-04-10T06:16:00.244Z,42.00
2023-04-10T06:16:32.646Z,42.30
2023-04-10T06:17:05.070Z,38.50
2023-04-10T06:17:37.565Z,35.80
2023-04-10T06:18:10.049Z,35.80
2023-04-10T06:18:42.521Z,34.60
2023-04-10T06:19:14.967Z,38.60
2023-04-10T06:19:47.438Z,37.10
2023-04-10T06:20:19.913Z,36.40
2023-04-10T06:20:52.394Z,39.30
2023-04-10T06:21:24.818Z,39.90
2023-04-10T06:21:57.274Z,36.60
2023-04-10T06:22:29.719Z,35.40
2023-04-10T06:23:02.232Z,33.30
2023-04-10T06:23:34.676Z,31.10
2023-04-10T06:24:07.137Z,33.70
2023-04-10T06:24:39.573Z,37.20
2023-04-10T06:25:12.009Z,34.20
2023-04-10T06:25:44.534Z,34.50
2023-04-10T06:26:16.965Z,36.70
2023-04-10T06:26:49.434Z,36.80
2023-04-10T06:27:21.888Z,35.40
2023-04-10T06:27:54.347Z,32.40
2023-04-10T06:28:26.842Z,31.80
2023-04-10T06:28:59.305Z,32.20
2023-04-10T06:29:31.756Z,34.70
2023-04-10T06:30:04.264Z,39.40
2023-04-10T06:30:36.737Z,35.30
2023-04-10T06:31:09.264Z,29.90
2023-04-10T06:31:41.696Z,34.70
2023-04-10T06:32:14.231Z,34.80
2023-04-10T06:32:46.726Z,31.60
2023-04-10T06:33:19.163Z,27.70
2023-04-10T06:33:51.643Z,33.80
2023-04-10T06:34:24.119Z,34.70
2023-04-10T06:34:56.609Z,28.70
2023-04-10T06:35:29.095Z,28.00
2023-04-10T06:36:01.624Z,30.90
2023-04-10T06:36:34.113Z,32.00
2023-04-10T06:37:06.593Z,32.30
2023-04-10T06:37:39.054Z,32.40
2023-04-10T06:38:11.550Z,30.10
2023-04-10T06:38:44.037Z,29.40
2023-04-10T06:39:16.521Z,30.70
2023-04-10T06:39:49.061Z,28.70
2023-04-10T06:40:21.554Z,24.60
2023-04-10T06:40:54.029Z,23.90
2023-04-10T06:41:26.570Z,27.80
2023-04-10T06:41:59.036Z,28.80
2023-04-10T06:42:31.526Z,25.70
2023-04-10T06:43:04.001Z,28.00
2023-04-10T06:43:36.477Z,31.90
2023-04-10T06:44:08.933Z,28.80
2023-04-10T06:44:41.386Z,25.80
2023-04-10T06:45:13.866Z,28.30
2023-04-10T06:45:46.342Z,27.40
2023-04-10T06:46:18.873Z,27.10
2023-04-10T06:46:51.298Z,28.00
2023-04-10T06:47:23.889Z,27.60
2023-04-10T06:47:56.216Z,26.10
2023-04-10T06:48:28.665Z,27.60
2023-04-10T06:49:01.129Z,28.60
2023-04-10T06:49:33.599Z,26.40
2023-04-10T06:50:06.071Z,24.50
2023-04-10T06:50:38.551Z,25.80
2023-04-10T06:51:11.048Z,26.50
2023-04-10T06:51:43.504Z,23.90
2023-04-10T06:52:15.998Z,23.50
2023-04-10T06:52:48.486Z,23.40
2023-04-10T06:53:20.936Z,21.00
2023-04-10T06:53:53.432Z,21.00